Vremea acum in Negrești Oaș - Romania

Vrei sa afli care e starea vremii acum in Maramures - Romania? Dorim sa iti furnizam starea vremii pentru Maramures - Romania. Starea vremii Maramures - Romania pentru astazi.

Vremea acum in Negrești Oaș

Temperatura: 22.1 °C

Este:
Se simte ca: 24.6 °C
Innorat: 25 %
Precipitatii: 0 %
Presiune atmosferica: 1015 hPa
Umiditate: 50%
Vizibilitate: 10 km
Vantul bate din NW cu 7.2 km/h

Evolutia vremii in Negrești Oaș pe ore

Ora: 19:00
Senin
Temperatura: 17.9°C
Sansa de precipitatii: 0%
Ora Descriere Temp Se simte Precipitatii Umiditate Vant
00:00Acoperit de nori11.1°11.1°0%98%W 0.7 KM/H
01:00Patchy rain nearby11.2°11.2°82%98%WNW 0.7 KM/H
02:00Ceata11.7°11.7°100%97%WNW 1.1 KM/H
03:00Patchy rain nearby11.7°11.7°80%97%NNW 0.7 KM/H
04:00Patchy rain nearby11.8°11.8°69%96%WNW 0.7 KM/H
05:00Patchy rain nearby11.6°11.6°69%96%W 0.7 KM/H
06:00Patchy rain nearby11.6°11.6°73%96%SE 0.4 KM/H
07:00Patchy rain nearby12.3°12.3°76%95%S 0.7 KM/H
08:00Patchy rain nearby12.8°12.8°100%94%S 1.4 KM/H
09:00Patchy rain nearby13°13°100%94%SSE 2.5 KM/H
10:00Patchy rain nearby13.2°13.2°100%93%S 2.9 KM/H
11:00Patchy rain nearby13.5°13.5°100%92%S 2.5 KM/H
12:00Patchy rain nearby16.5°16.5°100%78%W 4.7 KM/H
13:00Patchy rain nearby18.1°18.1°100%67%W 6.1 KM/H
14:00Ploi usoare18.7°18.7°100%63%WNW 7.9 KM/H
15:00Patchy rain nearby19.1°19.1°100%61%WNW 8.3 KM/H
16:00Patchy rain nearby19°19°100%61%WNW 8.3 KM/H
17:00Patchy rain nearby18.7°18.7°79%62%WNW 7.6 KM/H
18:0022.1°18.5°0%50%NW 7.2 KM/H
19:00Senin17.9°17.9°0%69%NW 6.5 KM/H
20:00Senin14.1°14.4°0%79%NNW 5 KM/H
21:00Senin11.5°11.5°0%86%NNE 5 KM/H
22:00Senin10.9°10.7°0%87%NE 5 KM/H
23:00Senin10.5°10.3°0%87%ENE 5 KM/H




tutorials